Date,TemperatureHighF,TemperatureAvgF,TemperatureLowF,DewpointHighF,DewpointAvgF,DewpointLowF,HumidityHigh,HumidityAvg,HumidityLow,PressureMaxIn,PressureMinIn,WindSpeedMaxMPH,WindSpeedAvgMPH,GustSpeedMaxMPH,PrecipitationSumIn
2014-1-1,29.1,24.8,16.0,16.4,12.7,8.5,74,60,47,30.43,30.27,7,1,10,0.00
2014-1-2,24.8,18.8,7.5,17.5,14.0,3.4,85,81,69,30.37,29.80,12,5,15,0.00
2014-1-3,15.8,8.8,-1.1,8.9,1.4,-8.8,85,72,54,30.48,29.70,10,3,16,0.00
2014-1-4,26.4,10.4,-6.9,15.1,2.8,-12.5,80,71,57,30.59,30.35,9,1,9,0.02
2014-1-5,42.6,20.3,3.0,40.7,16.2,-1.6,93,84,80,30.41,29.92,5,0,6,0.00
2014-1-6,56.3,44.6,29.8,54.6,40.9,20.7,95,87,66,29.91,29.41,10,3,14,0.47
2014-1-7,29.8,12.8,7.5,21.6,-0.4,-7.0,80,55,46,30.33,29.60,10,3,16,0.00
2014-1-8,20.8,12.7,5.4,6.3,0.7,-6.1,74,58,48,30.55,30.33,7,1,9,0.00
2014-1-9,28.4,16.6,9.9,14.0,8.7,4.9,81,72,52,30.71,30.49,5,1,8,0.00
2014-1-10,32.7,24.5,10.6,30.1,20.6,5.9,90,85,80,30.66,30.31,2,0,2,0.01
2014-1-11,58.3,47.7,32.7,56.3,45.6,30.1,95,92,90,30.31,29.39,13,2,15,0.91
2014-1-12,51.6,42.2,29.5,49.1,33.4,23.8,92,71,58,30.08,29.41,9,3,15,0.11
2014-1-13,29.6,28.0,26.4,24.5,23.5,22.5,85,83,80,30.16,30.07,2,0,2,0.00
2014-4-7,53.1,47.1,43.5,44.3,35.5,23.2,90,66,31,30.18,29.87,8,4,12,0.20
2014-4-8,63.0,52.9,46.8,59.3,46.2,33.7,91,79,56,29.86,29.42,10,3,14,0.56
2014-4-9,57.9,48.1,36.3,39.0,28.9,16.0,82,51,24,30.05,29.62,9,3,18,0.00
2014-4-10,56.8,47.1,28.4,34.2,26.3,17.2,69,46,29,30.24,30.05,13,3,16,0.00
2014-4-11,70.9,58.5,45.7,49.8,43.0,34.2,74,57,41,30.11,29.99,7,2,9,0.00
2014-4-12,69.3,57.4,44.1,46.5,38.5,31.1,86,54,25,30.29,30.04,8,2,12,0.02
2014-4-13,66.2,55.3,39.6,52.4,42.9,32.6,79,64,41,30.30,30.09,12,3,15,0.00
2014-4-14,71.8,63.1,57.6,57.8,53.6,50.4,83,72,57,30.12,29.99,16,4,25,0.00
2014-4-15,61.4,57.1,37.2,57.7,53.5,33.7,91,88,81,30.00,29.65,14,4,20,2.26
2014-4-16,44.6,36.7,30.7,33.7,22.2,16.6,88,58,33,30.64,29.86,12,3,17,0.32
2014-4-17,47.8,39.2,29.7,26.0,23.7,18.2,71,55,39,30.80,30.64,10,4,14,0.00
2014-4-18,51.9,39.7,27.7,34.3,28.8,22.0,81,66,46,30.67,30.29,8,2,12,0.00
2014-4-19,63.7,49.5,33.8,40.0,31.0,25.4,86,54,27,30.44,30.24,10,2,13,0.00
2014-4-20,59.2,46.3,32.4,33.0,26.5,20.2,73,48,25,30.55,30.40,10,2,12,0.00
2014-4-21,66.1,48.2,29.1,38.8,31.0,21.8,82,56,19,30.39,29.94,9,2,14,0.00
2014-4-22,70.2,54.8,37.6,48.3,41.8,32.5,83,64,39,29.94,29.55,12,2,14,0.02
2014-4-23,55.0,49.4,46.0,45.7,40.6,33.3,88,73,52,29.73,29.51,12,3,13,0.09
2014-4-24,57.9,49.5,40.1,33.2,24.1,17.8,61,38,25,30.01,29.73,14,4,18,0.00
2014-4-25,64.2,51.0,35.2,31.4,27.1,22.0,62,41,22,30.08,29.90,14,2,14,0.00
2014-4-26,49.5,46.0,42.9,44.8,39.6,30.0,87,79,53,29.93,29.81,5,1,7,0.59
2014-4-27,55.0,47.9,41.9,42.4,38.8,34.9,87,71,56,30.13,29.89,8,2,12,0.01
2014-4-28,63.1,50.3,35.6,40.9,36.2,30.0,81,60,41,30.25,30.05,9,2,12,0.00
2014-4-29,50.4,45.0,41.5,38.6,35.8,33.8,80,70,57,30.54,30.24,14,6,16,0.00
2014-4-30,45.7,42.6,39.9,43.3,38.2,34.3,92,84,77,30.54,30.16,9,4,10,1.24
2014-5-1,69.6,58.9,45.7,62.1,54.9,43.2,93,87,74,30.16,29.74,9,2,14,1.83
2014-5-2,66.6,58.4,48.2,53.9,44.3,39.2,91,62,39,29.88,29.74,8,2,10,0.02
2014-5-3,70.0,56.9,38.7,47.6,40.5,34.7,86,58,33,29.94,29.79,12,2,14,0.00
2014-5-4,65.0,55.8,47.2,45.8,39.2,33.4,83,56,32,29.79,29.61,14,3,19,0.02
2014-5-5,64.1,55.5,47.3,42.8,39.8,37.3,72,57,40,29.92,29.73,9,3,10,0.00
2014-5-6,65.1,53.5,39.7,43.4,35.4,31.2,85,54,30,30.10,29.90,10,2,11,0.00
2014-5-7,68.2,53.0,34.6,38.1,33.0,29.3,82,51,25,30.25,30.10,7,2,8,0.00
2014-5-8,59.4,51.6,40.3,53.4,44.3,32.8,87,76,60,30.25,30.16,3,0,5,0.01
2014-5-9,60.3,57.3,54.5,57.0,53.1,50.8,91,86,80,30.28,30.12,5,1,9,0.00
2014-5-10,82.2,66.7,59.5,65.3,60.0,57.2,92,81,49,30.12,29.85,10,2,13,0.55
2014-5-11,78.8,67.2,54.3,59.0,46.8,37.1,89,54,24,30.12,29.89,9,2,10,0.09
2014-5-12,84.2,66.7,46.0,57.3,48.0,40.3,82,55,26,30.18,30.07,10,2,12,0.00
2014-5-13,67.5,58.0,50.0,55.0,43.3,37.9,82,59,40,30.37,30.10,15,4,18,0.00
2014-5-14,70.7,59.5,45.1,54.6,45.4,36.4,78,61,41,30.39,30.32,8,2,9,0.00
2014-5-15,74.3,65.6,59.0,64.4,58.4,48.9,87,78,67,30.35,30.24,8,2,10,0.01
2014-5-16,68.2,64.8,61.5,62.8,60.5,57.3,90,86,82,30.24,29.99,9,3,13,0.00
2014-5-17,74.1,64.6,51.1,63.3,54.1,44.1,92,71,39,30.15,29.87,9,2,14,1.25
2014-5-18,70.2,58.8,45.3,45.8,41.5,36.0,87,56,34,30.19,30.08,8,1,10,0.00
2014-5-19,68.7,58.5,44.4,41.8,37.1,33.0,74,47,29,30.20,30.08,10,1,10,0.00
2014-5-20,77.0,62.5,48.4,47.4,41.8,36.9,77,51,25,30.11,29.99,7,1,10,0.00
2014-5-21,78.4,60.9,45.1,52.4,45.3,40.3,84,59,29,30.05,29.97,8,1,9,0.00
2014-5-22,61.9,57.9,55.6,55.6,52.3,46.1,88,82,70,30.00,29.90,7,1,7,0.26
2014-5-23,68.0,59.3,54.3,58.6,54.1,50.2,89,83,70,30.00,29.92,5,1,7,0.19
2014-5-24,68.0,58.9,50.9,54.1,50.7,47.8,90,75,57,30.11,29.98,7,1,10,0.02
2014-5-25,73.8,59.8,48.2,59.6,53.1,44.8,90,79,57,30.13,30.07,9,1,10,0.47
2014-5-26,82.2,64.5,49.5,65.4,54.6,46.1,91,73,43,30.11,29.89,6,1,9,0.01
2014-5-27,85.5,68.4,53.4,66.3,57.6,49.9,88,71,43,29.96,29.82,7,1,10,0.31
2014-5-28,55.5,51.5,47.8,49.7,46.4,42.9,89,83,76,30.25,29.94,10,3,17,0.00
2014-5-29,69.4,54.5,38.8,49.8,44.0,35.6,88,69,45,30.27,30.19,8,1,9,0.00
2014-5-30,72.9,55.6,41.7,57.0,47.7,37.7,88,76,53,30.22,30.05,7,1,8,0.16
2014-5-31,68.0,57.1,45.3,54.5,47.1,36.4,91,71,47,30.35,30.09,9,2,14,0.00
2014-6-1,78.3,60.5,39.7,55.6,44.5,35.5,86,60,31,30.39,30.30,6,1,9,0.00
2014-6-2,79.7,64.0,44.8,56.7,49.4,39.9,83,62,36,30.32,30.09,7,1,10,0.00
2014-6-3,83.1,66.8,51.4,64.6,55.9,46.8,85,69,52,30.10,29.94,7,2,12,0.00
2014-6-4,73.3,65.2,59.4,63.1,57.2,51.4,84,75,66,29.95,29.81,5,1,7,0.00
2014-6-5,65.3,62.0,59.4,61.0,58.4,55.5,90,88,83,29.86,29.69,3,0,5,0.67
2014-6-6,74.5,65.3,54.0,59.6,55.8,51.1,91,73,53,29.96,29.77,6,1,7,0.00
2014-6-7,82.8,68.5,51.9,62.1,56.0,48.4,89,67,42,30.02,29.95,5,1,8,0.00
2014-6-8,85.0,71.4,54.7,66.4,57.9,50.9,87,65,42,30.02,29.94,7,1,7,0.00
2014-6-9,73.3,64.2,55.8,62.6,57.1,51.0,87,78,64,30.07,29.99,5,0,6,0.39
2014-6-10,76.6,68.2,62.2,69.6,63.7,57.4,91,86,77,30.13,30.01,14,1,14,0.00
2014-6-11,73.7,65.1,60.3,58.6,54.3,48.9,83,69,54,30.21,30.12,7,2,10,0.00
2014-6-12,70.5,64.5,59.2,64.0,58.1,49.6,85,80,67,30.21,30.07,6,2,9,0.00
2014-6-13,72.7,67.6,62.6,68.9,64.3,58.9,92,89,84,30.07,29.82,5,1,6,0.73
2014-6-14,75.4,67.5,55.8,66.6,61.1,48.4,93,81,63,30.02,29.85,6,1,6,0.00
2014-6-15,78.2,65.7,50.2,60.1,54.5,46.5,89,69,51,30.13,30.00,8,1,8,0.00
2014-6-16,81.3,66.5,52.7,60.1,53.3,48.8,87,65,39,30.21,30.12,5,1,10,0.00
2014-6-17,83.5,67.5,57.2,71.9,60.5,51.2,85,79,67,30.15,29.94,5,1,6,0.00
2014-6-18,83.8,75.4,66.2,71.7,65.1,60.1,90,72,55,30.03,29.83,6,1,9,0.00
2014-6-19,81.3,70.4,61.5,68.4,63.7,56.5,89,80,62,30.06,29.97,6,1,6,0.13
2014-6-20,77.0,65.7,52.7,58.8,51.9,46.9,88,64,40,30.05,29.94,6,1,9,0.00
2014-6-21,76.5,64.3,49.7,55.9,50.5,44.5,83,63,41,30.05,29.94,3,1,6,0.00
2014-6-22,78.8,65.5,52.5,57.5,52.8,47.7,86,66,40,30.10,29.99,5,1,6,0.00
2014-6-23,81.7,65.4,50.7,62.8,53.9,46.7,86,68,48,30.25,30.10,6,1,10,0.00
2014-6-24,82.0,67.7,52.9,64.5,57.0,48.4,86,70,53,30.25,30.10,8,2,10,0.00
2014-6-25,83.3,72.8,62.1,72.0,65.8,57.2,88,79,66,30.10,29.93,7,2,9,0.00
2014-6-26,87.1,75.5,65.1,73.4,68.5,60.2,91,80,60,30.06,29.86,7,1,8,0.11
2014-6-27,80.2,69.1,57.5,61.6,57.1,52.1,89,68,42,30.28,30.06,8,1,9,0.00
2014-6-28,84.3,68.0,52.0,66.3,56.4,47.9,86,68,45,30.35,30.28,7,1,8,0.00
2014-6-29,83.5,68.8,53.3,67.5,58.0,49.2,86,70,53,30.34,30.20,6,1,9,0.00
2014-6-30,85.2,72.3,57.9,66.7,60.8,53.3,87,69,45,30.20,30.02,6,1,10,0.00
2014-7-1,87.3,77.2,66.2,73.2,67.5,61.8,88,73,62,30.03,29.90,7,2,12,0.00
2014-7-2,88.2,78.8,70.2,75.8,70.6,65.4,87,76,65,30.03,29.90,9,2,12,0.01
2014-7-3,89.4,79.2,69.8,76.3,71.5,65.1,89,78,60,30.10,29.97,7,1,10,0.15
2014-7-4,72.9,67.4,62.4,68.6,64.4,60.1,92,90,86,30.06,29.88,3,1,7,1.21
2014-7-5,78.8,69.0,59.2,59.9,54.8,51.5,92,63,40,30.13,29.90,7,2,9,0.01
2014-7-6,83.8,70.8,54.0,63.0,57.2,49.6,86,65,41,30.12,29.97,7,1,9,0.00
2014-7-7,85.3,76.2,67.3,70.3,65.5,60.5,81,70,58,29.99,29.79,9,2,13,0.00
2014-7-8,88.9,77.7,67.6,74.9,68.7,63.1,86,75,56,29.90,29.77,7,2,10,0.02
2014-7-9,85.9,77.7,70.2,71.1,66.8,63.4,84,70,51,30.01,29.76,7,2,9,0.00
2014-7-10,81.9,73.7,66.6,65.8,63.5,60.7,87,71,56,30.21,30.00,5,1,5,0.00
2014-7-11,84.9,72.1,62.8,64.8,60.7,56.2,87,69,47,30.29,30.20,7,1,8,0.00
2014-7-12,85.9,71.6,57.0,68.4,60.8,52.9,87,70,51,30.29,30.20,6,1,8,0.00
2014-7-13,81.8,72.8,62.2,69.5,64.5,57.5,88,76,62,30.22,29.99,8,2,10,0.00
2014-7-14,82.4,75.4,71.4,72.9,69.8,66.9,91,83,72,29.99,29.93,6,1,7,0.60
2014-7-15,80.4,74.7,70.9,75.0,71.5,68.1,93,90,83,29.93,29.81,6,1,9,0.32
2014-7-16,77.2,72.5,66.7,72.2,68.7,63.7,93,88,78,29.93,29.82,3,0,5,0.02
2014-7-17,82.0,71.1,61.9,64.6,62.2,58.9,92,75,51,30.15,29.92,3,1,6,0.00
2014-7-18,81.7,69.3,56.3,65.0,58.3,53.1,89,70,44,30.29,30.15,3,1,5,0.00
2014-7-19,78.0,66.0,56.1,65.8,58.6,52.4,89,78,61,30.33,30.26,5,0,5,0.00
2014-7-20,77.5,66.7,56.7,62.3,58.3,53.1,89,75,55,30.27,30.17,6,1,7,0.00
2014-7-21,81.9,68.8,55.8,64.7,58.7,52.3,89,72,48,30.27,30.19,7,1,8,0.00
2014-7-22,88.3,74.2,59.2,72.7,64.5,55.6,89,73,53,30.23,30.09,5,1,8,0.00
2014-7-23,87.1,76.9,66.6,74.4,68.2,61.6,85,75,64,30.09,29.84,7,2,12,0.04
2014-7-24,80.6,73.8,66.7,68.9,66.1,61.7,91,78,62,29.96,29.82,5,1,6,0.00
2014-7-25,81.3,70.0,57.6,63.1,59.2,53.7,89,70,48,30.07,29.96,6,1,7,0.01
2014-7-26,81.1,69.7,58.1,67.9,60.4,54.2,88,74,52,30.06,29.97,6,1,7,0.00
2014-7-27,80.1,72.1,65.5,71.4,66.2,61.2,91,82,73,29.97,29.74,7,1,10,0.00
2014-7-28,82.8,74.0,65.8,72.6,66.7,60.1,92,79,62,29.74,29.54,7,1,7,0.19
2014-7-29,78.6,69.1,59.5,61.9,58.5,54.7,85,70,52,30.02,29.66,3,1,6,0.01
2014-7-30,80.4,67.8,54.9,63.0,56.4,51.4,88,69,43,30.12,30.01,5,1,7,0.00
2014-7-31,81.7,68.6,53.6,65.7,57.8,49.5,87,70,47,30.23,30.12,12,1,12,0.00
2014-8-1,83.7,71.8,61.9,71.8,64.4,58.0,88,78,62,30.28,30.23,9,1,10,0.00
2014-8-2,68.7,66.4,61.9,66.0,62.0,57.9,91,86,76,30.28,30.17,7,1,10,0.10
2014-8-3,73.1,66.7,62.2,65.8,61.9,58.4,89,85,77,30.20,30.10,3,0,5,0.02
2014-8-4,83.0,72.9,64.6,71.1,66.1,61.3,91,80,63,30.12,30.07,7,1,9,0.00
2014-8-5,88.7,75.2,64.0,72.7,65.4,60.7,91,74,46,30.10,29.97,5,1,8,0.00
2014-8-6,84.5,73.1,62.1,68.1,62.5,56.5,87,71,51,29.97,29.86,5,1,7,0.00
2014-8-7,81.5,68.0,56.1,62.5,56.5,52.0,87,69,46,30.04,29.92,6,1,8,0.00
2014-8-8,82.4,67.2,53.1,61.0,55.7,49.3,88,69,45,30.11,30.03,6,1,8,0.00
2014-8-9,85.3,71.0,55.2,64.0,57.6,51.1,86,66,40,30.16,30.09,8,1,12,0.00
2014-8-10,86.0,71.8,57.6,66.3,58.6,53.4,87,66,41,30.20,30.14,7,1,10,0.00
2014-8-11,84.9,69.2,56.8,69.8,60.0,52.4,88,74,53,30.22,30.17,7,1,10,0.00
2014-8-12,80.2,70.2,58.8,67.6,62.0,55.1,88,76,54,30.19,30.02,9,2,13,0.00
2014-8-13,72.7,69.0,64.0,69.6,65.6,61.4,93,89,82,30.02,29.67,9,2,10,4.40
2014-8-14,75.6,66.5,58.8,61.2,56.8,52.3,93,73,48,29.92,29.76,5,1,8,0.00
2014-8-15,73.2,63.6,54.0,59.4,54.5,50.8,89,74,53,30.02,29.89,5,1,9,0.00
2014-8-16,77.3,66.4,51.1,61.8,55.1,47.3,88,69,44,30.04,29.97,8,1,12,0.00
2014-8-17,78.8,68.6,59.5,66.3,59.9,55.1,88,75,58,29.97,29.84,3,1,5,0.00
2014-8-18,78.3,65.7,54.0,61.2,55.3,50.4,88,71,49,29.94,29.85,5,1,9,0.00
2014-8-19,79.8,65.1,50.6,60.4,54.5,46.6,87,71,47,30.01,29.93,5,1,6,0.00
2014-8-20,82.4,67.8,56.3,66.8,58.5,51.5,89,74,49,30.10,30.01,5,1,7,0.00
2014-8-21,80.4,68.8,59.2,65.9,60.3,54.7,88,75,55,30.14,30.08,6,1,7,0.00
2014-8-22,72.3,67.5,63.7,64.7,62.0,58.9,88,83,74,30.13,30.09,6,1,7,0.01
2014-8-23,74.3,66.6,56.7,61.2,58.8,51.9,87,77,61,30.19,30.12,7,1,8,0.00
2014-8-24,78.2,65.6,53.4,62.6,56.0,49.9,89,73,50,30.20,30.16,7,1,10,0.00
2014-8-25,86.4,70.6,55.8,68.8,60.4,51.6,88,72,47,30.21,30.15,5,1,6,0.00
2014-8-26,86.5,71.1,61.3,71.8,63.1,56.6,90,77,60,30.24,30.13,5,1,9,0.00
2014-8-27,85.3,72.6,58.6,70.6,63.6,54.8,88,75,59,30.13,29.92,7,1,9,0.00
2014-8-28,80.1,72.9,63.0,65.4,62.2,58.4,87,71,49,29.92,29.87,6,1,11,0.00
2014-8-30,75.3,69.9,51.6,61.7,59.8,47.9,87,71,59,30.35,30.20,8,2,8,0.00
2014-8-31,82.8,73.8,64.2,74.4,68.3,58.9,90,83,74,30.21,30.02,9,2,9,0.98
2014-9-1,86.9,77.5,70.9,75.7,71.3,68.1,92,82,66,30.05,29.98,8,1,9,0.00
2014-9-2,90.0,80.3,70.5,77.2,72.4,67.1,92,78,63,30.01,29.81,10,2,10,0.01
2014-9-3,82.2,74.2,61.7,71.3,62.9,56.5,84,69,50,30.16,29.79,9,2,9,0.00
2014-9-4,84.2,69.5,55.4,67.9,59.7,51.6,88,73,46,30.26,30.16,8,1,8,0.00
2014-9-5,85.3,71.3,61.2,72.2,65.2,57.3,88,82,63,30.23,30.06,8,1,8,0.00
2014-9-6,87.1,78.8,72.3,76.5,72.3,63.8,89,81,69,30.07,29.85,9,2,9,0.00
2014-9-7,78.1,68.7,56.5,65.5,59.0,51.1,89,73,46,30.26,29.97,7,1,7,0.10
2014-9-8,75.6,63.7,52.9,60.4,54.9,48.8,88,74,55,30.40,30.26,12,2,12,0.00
2014-9-9,71.8,63.3,52.5,59.7,55.1,48.5,87,75,64,30.38,30.22,12,2,12,0.00
2014-9-10,73.6,64.3,57.6,62.4,58.0,53.3,87,80,67,30.22,30.08,7,1,7,0.00
2014-9-11,77.4,68.8,59.4,68.6,63.2,55.7,90,83,72,30.08,29.86,8,2,9,0.00
2014-9-12,73.6,64.0,54.7,57.8,54.0,49.9,86,71,54,30.26,29.99,10,2,10,0.00
2014-9-13,68.7,60.3,52.5,56.8,52.0,46.0,87,75,62,30.30,30.15,9,2,9,0.24
2014-9-14,67.6,57.1,46.6,53.4,49.3,43.5,90,77,55,30.28,30.16,8,1,8,0.01
2014-9-15,67.6,55.6,43.7,54.1,46.6,40.4,89,74,48,30.28,30.13,6,1,6,0.00
2014-9-16,67.3,56.7,48.0,60.5,52.1,43.9,89,85,76,30.14,29.99,4,0,4,0.08
2014-9-17,70.3,57.6,45.0,56.5,49.1,42.5,91,75,45,30.07,29.98,6,1,6,0.01
2014-9-18,70.7,52.4,41.5,53.2,46.3,38.4,90,81,54,30.16,29.99,2,1,2,0.00
2014-9-19,61.7,53.0,41.9,48.1,41.4,36.5,86,66,44,30.46,30.16,10,2,10,0.00
2014-9-20,70.5,55.5,38.7,57.9,48.2,35.0,87,77,62,30.43,30.13,9,1,9,0.00
2014-9-21,75.9,66.8,56.5,71.3,63.2,52.2,92,88,84,30.13,29.64,7,1,7,0.23
2014-9-22,71.4,63.6,47.5,64.3,54.1,40.3,93,73,51,30.16,29.63,9,2,10,0.00
2014-9-23,68.4,54.1,38.7,51.6,45.0,35.1,88,73,51,30.47,30.16,6,1,6,0.00
2014-9-24,70.5,57.6,45.1,55.7,50.0,41.8,89,77,54,30.63,30.47,8,2,8,0.00
2014-9-25,61.3,56.8,53.2,55.6,52.4,49.3,90,86,80,30.57,30.26,7,2,7,0.45
2014-9-26,73.9,61.7,53.2,57.8,53.6,49.3,92,77,49,30.26,30.18,10,2,10,0.04
2014-9-27,79.9,63.6,48.7,64.8,56.2,45.6,91,78,56,30.24,30.19,5,1,5,0.00
2014-9-28,81.7,65.6,51.3,68.0,58.3,48.1,91,78,59,30.23,30.07,6,1,6,0.00
2014-9-29,75.6,64.8,55.4,67.5,59.9,52.4,91,84,74,30.06,29.97,8,1,9,0.00
2014-9-30,62.6,59.1,57.2,58.2,55.7,53.9,90,89,86,30.07,30.01,8,2,8,0.04
2014-10-1,59.7,57.8,56.8,57.5,55.0,54.0,93,91,88,30.12,30.03,9,2,9,0.30
2014-10-2,60.3,56.9,50.2,56.1,53.4,46.9,92,88,81,30.20,30.11,13,2,13,0.03
2014-10-3,64.8,55.0,43.9,54.3,49.3,41.7,93,82,64,30.18,29.94,10,2,10,0.00
2014-10-4,65.7,58.1,53.4,63.7,55.6,50.2,94,91,86,29.93,29.54,10,2,10,0.71
2014-10-5,59.7,51.5,39.2,54.5,43.8,35.7,92,76,53,30.01,29.63,8,1,8,0.00
2014-10-6,65.7,50.6,34.0,52.2,43.2,31.1,90,77,55,30.17,30.01,12,2,12,0.00
2014-10-7,72.0,61.0,46.4,62.3,54.8,43.0,94,81,63,30.16,30.00,12,2,12,0.00
2014-10-8,71.1,63.8,55.2,61.7,55.3,47.4,92,75,51,30.01,29.79,13,2,13,0.09
2014-10-9,66.2,54.7,42.1,48.6,43.7,38.5,88,68,46,30.05,29.94,10,2,10,0.00
2014-10-10,62.8,51.3,37.9,47.8,41.9,34.4,88,72,50,30.16,30.05,9,1,9,0.00
2014-10-11,52.3,47.4,41.7,47.9,43.7,38.5,90,87,82,30.18,30.09,6,1,6,0.30
2014-10-12,61.7,47.6,35.2,48.4,40.2,32.9,92,77,47,30.35,30.18,6,1,6,0.00
2014-10-13,64.4,49.7,34.2,54.9,44.8,31.0,90,83,69,30.39,30.29,7,1,7,0.00
2014-10-14,75.2,65.4,57.6,65.8,60.1,54.0,93,84,66,30.29,30.18,10,2,10,0.01
2014-10-15,77.0,70.0,63.1,68.4,65.1,60.8,94,85,72,30.19,29.98,13,3,13,0.01
2014-10-16,70.9,67.4,59.7,68.1,64.7,57.7,93,91,88,29.98,29.73,12,2,12,1.95
2014-10-17,70.5,62.4,55.2,60.8,56.3,51.7,94,81,61,29.76,29.68,8,2,8,0.00
2014-10-18,70.5,60.0,52.9,62.7,54.6,48.3,94,83,66,29.74,29.56,9,1,9,0.05
2014-10-19,55.0,52.4,50.0,48.6,44.9,41.3,79,75,72,29.85,29.68,9,1,9,0.00
2014-10-20,56.1,45.5,29.8,40.6,35.5,25.3,85,69,50,30.12,30.01,9,2,9,0.00
2014-10-21,67.5,52.2,38.8,55.6,45.0,35.1,89,78,52,30.02,29.88,9,1,9,0.00
2014-10-22,56.8,52.8,49.3,52.0,49.0,46.2,91,87,83,30.00,29.73,18,6,18,0.51
2014-10-23,55.8,52.5,49.6,50.0,47.8,45.2,90,84,78,29.76,29.60,17,6,17,0.08
2014-10-24,54.5,51.0,47.8,48.4,45.3,42.7,90,81,70,29.81,29.70,8,2,8,0.06
2014-10-25,63.7,51.9,39.2,49.4,43.3,36.2,90,74,50,29.84,29.55,9,2,9,0.00
2014-10-26,58.3,52.6,44.6,49.4,42.3,38.1,86,69,54,29.81,29.50,10,4,10,0.02
2014-10-27,60.6,51.1,39.4,45.0,40.3,33.9,81,67,49,30.08,29.80,10,2,10,0.01
2014-10-28,69.8,51.5,35.8,58.8,45.5,31.8,89,81,65,30.10,29.97,9,2,9,0.00
2014-10-29,73.4,59.5,51.3,63.0,53.0,45.4,93,80,58,29.97,29.81,9,2,9,0.03
2014-10-30,58.3,46.4,36.0,45.4,37.9,31.0,90,74,50,30.03,29.94,8,2,8,0.00
2014-10-31,54.5,44.4,32.5,44.6,37.6,29.6,90,78,61,30.06,29.94,10,3,10,0.03
2014-11-1,47.1,44.3,40.6,41.6,37.8,32.5,89,78,62,29.94,29.77,16,6,16,0.33
2014-11-2,45.5,41.3,37.0,35.6,27.4,17.3,82,59,37,29.92,29.67,16,7,16,0.00
2014-11-3,52.9,42.2,32.4,32.0,25.2,17.5,66,52,37,30.12,29.92,12,3,12,0.00
2014-11-4,64.9,50.1,34.3,41.1,34.9,29.1,83,59,33,30.18,30.09,7,2,7,0.00
2014-11-5,66.2,53.4,44.2,49.3,41.0,35.7,88,64,44,30.16,30.02,13,3,13,0.00
2014-11-6,49.5,46.7,43.3,46.2,41.7,35.4,91,83,72,30.15,29.53,6,1,6,0.28
2014-11-7,49.8,44.7,36.7,45.3,37.5,28.8,91,77,57,29.87,29.51,9,3,9,0.00
2014-11-8,47.1,37.9,29.7,31.0,27.4,22.7,82,67,45,30.04,29.86,8,2,8,0.00
2014-11-9,56.3,42.2,31.6,42.7,33.3,26.8,87,72,48,30.05,29.92,6,1,6,0.01
2014-11-10,59.2,41.7,28.6,42.3,32.6,24.9,88,72,43,30.23,30.05,7,1,7,0.00
2014-11-11,60.4,46.3,30.4,52.5,41.5,26.7,92,83,73,30.21,29.97,8,3,8,0.00
2014-11-12,62.4,53.4,40.3,56.9,47.9,30.2,93,82,60,30.06,29.88,6,1,6,0.00
2014-11-13,51.1,41.8,28.4,33.7,29.8,24.2,85,64,43,30.11,29.99,5,3,5,0.10
2014-11-14,41.2,34.8,28.9,32.7,26.6,21.2,88,73,49,30.16,29.94,12,2,12,0.18
2014-11-15,38.5,29.6,22.3,24.0,18.5,15.3,81,65,41,30.40,30.16,10,2,10,0.00
2014-11-16,41.0,31.3,19.8,30.9,23.8,14.8,83,74,64,30.43,30.15,5,0,5,0.00
2014-11-17,54.7,41.8,34.7,52.7,38.5,28.8,95,88,76,30.15,29.48,12,1,12,1.58
2014-11-18,46.9,34.6,23.4,43.3,21.3,7.2,87,59,40,30.02,29.52,14,4,14,0.00
2014-11-19,33.3,26.0,19.4,19.9,11.2,6.9,71,54,40,30.21,30.02,14,2,14,0.00
2014-11-20,47.1,35.1,24.3,29.0,21.8,16.5,80,59,40,30.10,29.79,18,3,18,0.00
2014-11-21,34.0,27.6,21.9,18.8,13.4,9.5,77,56,40,30.49,29.96,13,3,13,0.00
2014-11-22,42.3,31.4,15.8,26.2,17.7,8.7,77,58,42,30.50,30.17,14,2,14,0.00
2014-11-23,58.6,45.0,35.6,37.9,29.9,25.2,75,56,45,30.22,30.10,9,2,9,0.00
2014-11-24,63.3,55.6,35.6,60.6,51.9,28.1,92,87,74,30.10,29.66,18,5,18,1.18
2014-11-25,60.8,52.6,39.7,55.0,42.8,31.8,92,71,46,30.17,29.76,8,2,8,0.00
2014-11-26,42.4,37.4,33.4,35.6,32.8,30.9,92,84,67,30.23,29.72,18,3,18,1.03
2014-11-27,38.5,34.1,31.3,32.8,30.4,28.1,92,86,78,30.05,29.75,6,2,6,0.20
2014-11-28,35.4,30.5,22.6,28.4,22.6,15.0,89,73,55,30.28,30.02,10,2,10,0.08
2014-11-29,34.9,26.9,16.5,23.8,18.6,12.3,85,71,52,30.39,30.27,8,1,8,0.02
2014-11-30,55.2,44.6,31.6,42.6,35.9,23.5,83,72,56,30.29,30.10,13,2,13,0.00
2014-12-1,64.4,50.5,39.7,51.2,41.4,28.5,83,71,61,30.46,30.07,10,3,10,0.01
2014-12-2,39.6,36.5,34.2,31.8,26.6,21.4,86,68,55,30.70,30.38,13,4,13,0.04
2014-12-3,49.1,42.3,35.8,46.4,38.7,31.2,93,87,71,30.38,29.97,13,3,13,0.20
2014-12-4,42.1,34.7,25.2,31.4,24.4,19.3,86,67,42,30.58,30.17,12,2,12,0.00
2014-12-5,42.1,33.0,20.8,34.7,25.5,17.0,86,75,59,30.69,30.41,7,2,7,0.15
2014-12-6,42.8,40.9,38.7,40.4,38.1,34.7,92,90,86,30.41,30.15,8,1,8,0.97
2014-12-7,39.6,34.1,22.5,36.3,20.0,3.8,90,59,31,30.69,30.23,15,6,15,0.14
2014-12-8,28.4,24.3,19.9,23.9,14.6,2.6,83,67,44,30.77,30.46,12,4,12,0.00
2014-12-9,43.5,37.8,28.4,41.4,35.4,24.2,93,91,84,30.46,29.55,20,6,20,1.45
2014-12-10,39.9,37.7,34.0,38.1,35.6,31.9,93,92,91,29.62,29.49,5,2,5,0.23
2014-12-11,35.1,32.1,28.8,31.9,28.7,24.9,92,87,83,29.86,29.52,10,2,10,0.03
2014-12-12,34.7,30.6,25.5,27.7,25.3,22.5,89,81,73,29.96,29.85,6,1,6,0.00
2014-12-13,38.8,32.8,28.9,27.6,25.6,23.8,81,75,63,29.95,29.85,7,3,7,0.00
2014-12-14,43.5,34.0,26.2,33.3,27.9,22.9,90,79,64,29.97,29.84,9,2,9,0.00
2014-12-15,40.5,30.3,26.6,31.3,25.8,23.1,89,83,70,30.18,29.95,3,0,3,0.00
2014-12-16,37.8,32.0,25.3,35.1,28.7,22.2,90,87,85,30.18,29.92,2,0,2,0.09
2014-12-17,49.1,42.9,36.9,43.3,38.4,30.3,92,84,71,29.92,29.76,10,2,10,0.35
2014-12-18,40.8,37.3,33.4,31.8,29.1,26.0,84,72,64,29.94,29.80,13,4,13,0.00
2014-12-19,36.0,33.3,28.0,27.1,24.0,20.7,77,68,62,30.18,29.92,8,2,8,0.00
2014-12-20,33.8,29.9,22.8,27.5,23.5,18.1,84,77,71,30.32,30.18,8,1,8,0.00
2014-12-21,35.2,33.2,32.0,31.8,29.3,27.0,89,85,81,30.38,30.27,5,2,5,0.03
2014-12-22,44.4,38.9,33.4,37.8,34.0,29.1,86,82,74,30.39,30.27,13,3,13,0.01
2014-12-23,46.6,43.9,40.6,43.8,41.0,36.9,92,90,83,30.28,30.13,12,4,12,0.10
2014-12-24,60.3,47.9,42.1,58.8,45.8,39.6,95,92,91,30.13,29.58,8,2,8,0.81
2014-12-25,59.7,51.3,40.1,58.0,44.5,31.2,94,78,55,30.05,29.52,14,3,14,0.19
2014-12-26,47.5,37.1,28.0,35.0,29.6,24.1,88,75,57,30.23,30.05,7,2,7,0.00
2014-12-27,50.9,35.9,25.2,39.9,30.0,22.1,89,80,61,30.28,30.09,6,0,6,0.00
2014-12-28,49.1,42.3,32.5,43.9,36.7,27.8,90,81,69,30.09,29.84,8,2,8,0.08
2014-12-29,40.5,33.7,27.1,29.7,23.4,17.4,85,67,51,30.27,30.05,10,1,10,0.00
2014-12-30,29.1,24.7,17.2,17.4,11.8,6.6,77,59,41,30.41,30.25,9,2,9,0.00
2014-12-31,29.3,19.7,14.2,13.1,9.2,6.0,75,64,41,30.37,30.16,7,0,7,0.00
2015-1-1,34.5,26.4,14.4,20.9,12.3,7.5,77,56,42,30.16,29.98,10,3,10,0.00
2015-1-2,39.6,31.2,23.5,22.0,19.1,16.9,77,61,47,30.49,29.98,10,2,10,0.00